createdAt,value
2023-05-19T00:00:04.043Z,8.74
2023-05-19T00:00:36.714Z,8.71
2023-05-19T00:01:09.384Z,8.71
2023-05-19T00:01:42.059Z,8.71
2023-05-19T00:02:14.751Z,8.70
2023-05-19T00:02:47.496Z,8.73
2023-05-19T00:03:20.229Z,8.70
2023-05-19T00:03:52.887Z,8.71
2023-05-19T00:04:25.566Z,8.73
2023-05-19T00:04:58.230Z,8.73
2023-05-19T00:05:31.025Z,8.73
2023-05-19T00:06:03.859Z,8.71
2023-05-19T00:06:36.525Z,8.70
2023-05-19T00:07:09.191Z,8.71
2023-05-19T00:07:41.877Z,8.70
2023-05-19T00:08:14.567Z,8.70
2023-05-19T00:08:47.215Z,8.66
2023-05-19T00:09:19.896Z,8.66
2023-05-19T00:09:52.572Z,8.63
2023-05-19T00:10:25.266Z,8.65
2023-05-19T00:10:57.919Z,8.63
2023-05-19T00:11:30.584Z,8.62
2023-05-19T00:12:03.266Z,8.63
2023-05-19T00:12:35.946Z,8.62
2023-05-19T00:13:08.589Z,8.62
2023-05-19T00:13:41.270Z,8.61
2023-05-19T00:14:13.953Z,8.59
2023-05-19T00:14:46.638Z,8.58
2023-05-19T00:15:19.340Z,8.59
2023-05-19T00:15:52.032Z,8.61
2023-05-19T00:16:24.895Z,8.59
2023-05-19T00:16:57.679Z,8.59
2023-05-19T00:17:30.363Z,8.56
2023-05-19T00:18:03.196Z,8.56
2023-05-19T00:18:35.964Z,8.53
2023-05-19T00:19:08.719Z,8.56
2023-05-19T00:19:41.422Z,8.55
2023-05-19T00:20:14.098Z,8.55
2023-05-19T00:20:46.764Z,8.52
2023-05-19T00:21:19.461Z,8.53
2023-05-19T00:21:52.127Z,8.53
2023-05-19T00:22:24.804Z,8.52
2023-05-19T00:22:57.469Z,8.48
2023-05-19T00:23:30.138Z,8.45
2023-05-19T00:24:02.840Z,8.45
2023-05-19T00:24:35.498Z,8.45
2023-05-19T00:25:08.186Z,8.43
2023-05-19T00:25:40.890Z,8.41
2023-05-19T00:26:13.564Z,8.40
2023-05-19T00:26:46.210Z,8.38
2023-05-19T00:27:18.885Z,8.36
2023-05-19T00:27:51.558Z,8.37
2023-05-19T00:28:24.253Z,8.36
2023-05-19T00:28:56.925Z,8.36
2023-05-19T00:29:29.601Z,8.33
2023-05-19T00:30:02.298Z,8.33
2023-05-19T00:30:34.969Z,8.34
2023-05-19T00:31:07.640Z,8.29
2023-05-19T00:31:40.418Z,8.33
2023-05-19T00:32:13.230Z,8.33
2023-05-19T00:32:46.077Z,8.29
2023-05-19T00:33:18.724Z,8.29
2023-05-19T00:33:51.416Z,8.28
2023-05-19T00:34:24.084Z,8.29
2023-05-19T00:34:56.745Z,8.28
2023-05-19T00:35:29.426Z,8.22
2023-05-19T00:36:02.167Z,8.23
2023-05-19T00:36:34.809Z,8.23
2023-05-19T00:37:07.502Z,8.22
2023-05-19T00:37:40.162Z,8.20
2023-05-19T00:38:12.829Z,8.22
2023-05-19T00:38:45.501Z,8.22
2023-05-19T00:39:18.172Z,8.19
2023-05-19T00:39:50.846Z,8.18
2023-05-19T00:40:23.518Z,8.16
2023-05-19T00:40:56.196Z,8.16
2023-05-19T00:41:28.837Z,8.16
2023-05-19T00:42:01.500Z,8.15
2023-05-19T00:42:34.180Z,8.16
2023-05-19T00:43:06.846Z,8.12
2023-05-19T00:43:39.510Z,8.12
2023-05-19T00:44:12.181Z,8.11
2023-05-19T00:44:44.864Z,8.11
2023-05-19T00:45:17.552Z,8.10
2023-05-19T00:45:50.222Z,8.10
2023-05-19T00:46:22.978Z,8.10
2023-05-19T00:46:55.758Z,8.10
2023-05-19T00:47:28.438Z,8.10
2023-05-19T00:48:01.159Z,8.10
2023-05-19T00:48:33.799Z,8.10
2023-05-19T00:49:06.478Z,8.10
2023-05-19T00:49:39.163Z,8.10
2023-05-19T00:50:11.836Z,8.08
2023-05-19T00:50:44.513Z,8.10
2023-05-19T00:51:17.379Z,8.07
2023-05-19T00:51:50.035Z,8.07
2023-05-19T00:52:22.723Z,8.07
2023-05-19T00:52:55.386Z,8.05
2023-05-19T00:53:28.065Z,8.04
2023-05-19T00:54:00.760Z,8.04
2023-05-19T00:54:33.420Z,8.04
2023-05-19T00:55:06.085Z,8.02
2023-05-19T00:55:38.751Z,8.01
2023-05-19T00:56:11.446Z,8.02
2023-05-19T00:56:44.087Z,8.01
2023-05-19T00:57:16.751Z,8.02
2023-05-19T00:57:49.416Z,8.01
2023-05-19T00:58:22.092Z,8.02
2023-05-19T00:58:54.808Z,8.01
2023-05-19T00:59:27.459Z,8.01
2023-05-19T01:00:00.217Z,8.01
2023-05-19T01:00:33.196Z,8.00
2023-05-19T01:00:59.668Z,8.00
2023-05-19T01:01:32.577Z,7.97
2023-05-19T01:02:05.262Z,7.95
2023-05-19T01:02:37.978Z,7.93
2023-05-19T01:03:10.771Z,7.95
2023-05-19T01:03:43.722Z,7.92
2023-05-19T01:04:16.481Z,7.89
2023-05-19T01:04:49.175Z,7.87
2023-05-19T01:05:21.822Z,7.85
2023-05-19T01:05:54.499Z,7.85
2023-05-19T01:06:27.150Z,7.83
2023-05-19T01:06:59.824Z,7.80
2023-05-19T01:07:32.501Z,7.80
2023-05-19T01:08:05.168Z,7.77
2023-05-19T01:08:37.839Z,7.77
2023-05-19T01:09:10.518Z,7.75
2023-05-19T01:09:43.236Z,7.72
2023-05-19T01:10:15.903Z,7.72
2023-05-19T01:10:48.576Z,7.72
2023-05-19T01:11:19.679Z,7.72
2023-05-19T01:11:52.330Z,7.71
2023-05-19T01:12:25.012Z,7.68
2023-05-19T01:12:57.677Z,7.68
2023-05-19T01:13:30.351Z,7.64
2023-05-19T01:14:03.026Z,7.63
2023-05-19T01:14:35.689Z,7.64
2023-05-19T01:15:08.346Z,7.61
2023-05-19T01:15:41.019Z,7.61
2023-05-19T01:16:13.726Z,7.61
2023-05-19T01:16:46.587Z,7.60
2023-05-19T01:17:19.265Z,7.60
2023-05-19T01:17:51.968Z,7.57
2023-05-19T01:18:24.624Z,7.57
2023-05-19T01:18:57.363Z,7.58
2023-05-19T01:19:30.089Z,7.55
2023-05-19T01:20:02.802Z,7.53
2023-05-19T01:20:35.468Z,7.55
2023-05-19T01:21:08.144Z,7.50
2023-05-19T01:21:40.804Z,7.52
2023-05-19T01:22:13.542Z,7.52
2023-05-19T01:22:46.189Z,7.50
2023-05-19T01:23:18.862Z,7.50
2023-05-19T01:23:51.557Z,7.50
2023-05-19T01:24:24.269Z,7.49
2023-05-19T01:24:56.925Z,7.48
2023-05-19T01:25:29.578Z,7.46
2023-05-19T01:26:02.237Z,7.46
2023-05-19T01:26:34.948Z,7.46
2023-05-19T01:27:06.011Z,7.46
2023-05-19T01:27:38.672Z,7.43
2023-05-19T01:28:11.338Z,7.46
2023-05-19T01:28:44.018Z,7.46
2023-05-19T01:29:16.707Z,7.46
2023-05-19T01:29:49.390Z,7.48
2023-05-19T01:30:22.057Z,7.46
2023-05-19T01:30:54.717Z,7.46
2023-05-19T01:31:27.399Z,7.48
2023-05-19T01:32:00.134Z,7.48
2023-05-19T01:32:32.904Z,7.49
2023-05-19T01:33:05.634Z,7.48
2023-05-19T01:33:38.293Z,7.45
2023-05-19T01:34:10.970Z,7.45
2023-05-19T01:34:43.647Z,7.45
2023-05-19T01:35:16.316Z,7.45
2023-05-19T01:35:48.974Z,7.45
2023-05-19T01:36:21.652Z,7.43
2023-05-19T01:36:54.318Z,7.43
2023-05-19T01:37:26.995Z,7.43
2023-05-19T01:37:59.658Z,7.42
2023-05-19T01:38:32.331Z,7.43
2023-05-19T01:39:05.009Z,7.43
2023-05-19T01:39:37.683Z,7.43
2023-05-19T01:40:10.381Z,7.40
2023-05-19T01:40:43.047Z,7.43
2023-05-19T01:41:14.137Z,7.42
2023-05-19T01:41:46.839Z,7.42
2023-05-19T01:42:19.485Z,7.40
2023-05-19T01:42:52.161Z,7.40
2023-05-19T01:43:24.836Z,7.42
2023-05-19T01:43:57.541Z,7.40
2023-05-19T01:44:30.209Z,7.39
2023-05-19T01:45:02.871Z,7.40
2023-05-19T01:45:35.585Z,7.40
2023-05-19T01:46:08.294Z,7.37
2023-05-19T01:46:40.990Z,7.37
2023-05-19T01:47:13.668Z,7.39
2023-05-19T01:47:46.412Z,7.39
2023-05-19T01:48:19.097Z,7.35
2023-05-19T01:48:51.760Z,7.35
2023-05-19T01:49:24.418Z,7.34
2023-05-19T01:49:57.088Z,7.34
2023-05-19T01:50:30.004Z,7.35
2023-05-19T01:50:56.337Z,7.35
2023-05-19T01:51:29.000Z,7.35
2023-05-19T01:52:01.670Z,7.34
2023-05-19T01:52:34.329Z,7.32
2023-05-19T01:53:07.007Z,7.34
2023-05-19T01:53:39.673Z,7.32
2023-05-19T01:54:12.364Z,7.31
2023-05-19T01:54:45.121Z,7.28
2023-05-19T01:55:17.765Z,7.30
2023-05-19T01:55:50.436Z,7.27
2023-05-19T01:56:23.143Z,7.25
2023-05-19T01:56:55.823Z,7.25
2023-05-19T01:57:28.487Z,7.23
2023-05-19T01:58:01.161Z,7.23
2023-05-19T01:58:33.832Z,7.17
2023-05-19T01:59:06.526Z,7.16
2023-05-19T01:59:39.198Z,7.16
2023-05-19T02:00:11.865Z,7.13
2023-05-19T02:00:44.556Z,7.13
2023-05-19T02:01:17.271Z,7.12
2023-05-19T02:01:49.919Z,7.12
2023-05-19T02:02:22.583Z,7.09
2023-05-19T02:02:55.283Z,7.07
2023-05-19T02:03:27.920Z,7.10
2023-05-19T02:04:00.699Z,7.09
2023-05-19T02:04:33.410Z,7.09
2023-05-19T02:05:06.060Z,7.07
2023-05-19T02:05:38.736Z,7.07
2023-05-19T02:06:11.394Z,7.07
2023-05-19T02:06:44.060Z,7.07
2023-05-19T02:07:16.736Z,7.05
2023-05-19T02:07:49.414Z,7.06
2023-05-19T02:08:22.096Z,7.06
2023-05-19T02:08:54.766Z,7.05
2023-05-19T02:09:27.437Z,7.05
2023-05-19T02:10:00.200Z,7.03
2023-05-19T02:10:33.057Z,7.03
2023-05-19T02:10:59.368Z,7.02
2023-05-19T02:11:32.036Z,7.02
2023-05-19T02:12:04.743Z,6.99
2023-05-19T02:12:37.392Z,6.99
2023-05-19T02:13:10.056Z,7.02
2023-05-19T02:13:42.730Z,7.03
2023-05-19T02:14:15.451Z,7.02
2023-05-19T02:14:48.113Z,6.99
2023-05-19T02:15:20.778Z,6.99
2023-05-19T02:15:53.481Z,7.02
2023-05-19T02:16:26.281Z,6.99
2023-05-19T02:16:58.968Z,6.98
2023-05-19T02:17:31.684Z,6.99
2023-05-19T02:18:04.404Z,6.99
2023-05-19T02:18:37.120Z,6.98
2023-05-19T02:19:09.927Z,6.99
2023-05-19T02:19:42.643Z,6.98
2023-05-19T02:20:15.310Z,6.97
2023-05-19T02:20:47.982Z,6.98
2023-05-19T02:21:20.666Z,6.99
2023-05-19T02:21:53.327Z,6.97
2023-05-19T02:22:25.988Z,6.98
2023-05-19T02:22:58.656Z,6.98
2023-05-19T02:23:31.322Z,6.98
2023-05-19T02:24:04.024Z,6.98
2023-05-19T02:24:36.696Z,6.97
2023-05-19T02:25:09.388Z,6.98
2023-05-19T02:25:42.037Z,6.98
2023-05-19T02:26:14.708Z,6.98
2023-05-19T02:26:47.381Z,6.97
2023-05-19T02:27:20.072Z,6.97
2023-05-19T02:27:52.738Z,6.98
2023-05-19T02:28:25.396Z,6.97
2023-05-19T02:28:58.076Z,6.98
2023-05-19T02:29:30.761Z,6.97
2023-05-19T02:30:03.424Z,6.97
2023-05-19T02:30:36.090Z,6.97
2023-05-19T02:31:08.795Z,6.97
2023-05-19T02:31:41.481Z,6.95
2023-05-19T02:32:14.141Z,6.97
2023-05-19T02:32:46.979Z,6.97
2023-05-19T02:33:19.664Z,6.98
2023-05-19T02:33:52.360Z,6.97
2023-05-19T02:34:25.033Z,6.98
2023-05-19T02:34:57.726Z,6.97
2023-05-19T02:35:30.402Z,6.97
2023-05-19T02:36:03.092Z,6.98
2023-05-19T02:36:35.769Z,6.98
2023-05-19T02:37:08.435Z,6.99
2023-05-19T02:37:41.102Z,6.98
2023-05-19T02:38:13.779Z,6.98
2023-05-19T02:38:46.438Z,6.98
2023-05-19T02:39:19.162Z,6.99
2023-05-19T02:39:51.810Z,6.98
2023-05-19T02:40:24.486Z,6.99
2023-05-19T02:40:57.167Z,6.99
2023-05-19T02:41:29.837Z,6.99
2023-05-19T02:42:02.503Z,7.02
2023-05-19T02:42:35.200Z,6.99
2023-05-19T02:43:07.861Z,7.02
2023-05-19T02:43:40.509Z,7.02
2023-05-19T02:44:13.187Z,7.05
2023-05-19T02:44:45.861Z,7.03
2023-05-19T02:45:18.536Z,7.06
2023-05-19T02:45:51.205Z,7.05
2023-05-19T02:46:23.913Z,7.07
2023-05-19T02:46:56.591Z,7.09
2023-05-19T02:47:29.284Z,7.09
2023-05-19T02:48:01.988Z,7.09
2023-05-19T02:48:34.627Z,7.09
2023-05-19T02:49:07.318Z,7.07
2023-05-19T02:49:39.986Z,7.10
2023-05-19T02:50:12.661Z,7.09
2023-05-19T02:50:45.321Z,7.09
2023-05-19T02:51:17.995Z,7.09
2023-05-19T02:51:50.656Z,7.09
2023-05-19T02:52:23.332Z,7.10
2023-05-19T02:52:56.006Z,7.09
2023-05-19T02:53:28.678Z,7.10
2023-05-19T02:54:01.383Z,7.12
2023-05-19T02:54:34.035Z,7.10
2023-05-19T02:55:06.724Z,7.12
2023-05-19T02:55:39.523Z,7.12
2023-05-19T02:56:12.199Z,7.12
2023-05-19T02:56:44.864Z,7.12
2023-05-19T02:57:17.512Z,7.13
2023-05-19T02:57:50.276Z,7.13
2023-05-19T02:58:22.926Z,7.12
2023-05-19T02:58:54.028Z,7.12
2023-05-19T02:59:26.698Z,7.13
2023-05-19T02:59:59.383Z,7.13
2023-05-19T03:00:32.368Z,7.15
2023-05-19T03:00:58.650Z,7.12
2023-05-19T03:01:31.355Z,7.13
2023-05-19T03:02:04.032Z,7.12
2023-05-19T03:02:36.713Z,7.12
2023-05-19T03:03:09.482Z,7.13
2023-05-19T03:03:42.296Z,7.12
2023-05-19T03:04:15.076Z,7.10
2023-05-19T03:04:47.759Z,7.12
2023-05-19T03:05:20.421Z,7.10
2023-05-19T03:05:53.090Z,7.10
2023-05-19T03:06:25.770Z,7.09
2023-05-19T03:06:58.437Z,7.09
2023-05-19T03:07:31.109Z,7.07
2023-05-19T03:08:03.785Z,7.07
2023-05-19T03:08:36.462Z,7.07
2023-05-19T03:09:09.134Z,7.05
2023-05-19T03:09:41.800Z,7.07
2023-05-19T03:10:14.472Z,7.07
2023-05-19T03:10:47.147Z,7.06
2023-05-19T03:11:19.841Z,7.05
2023-05-19T03:11:52.491Z,7.03
2023-05-19T03:12:25.181Z,7.05
2023-05-19T03:12:57.922Z,7.03
2023-05-19T03:13:30.554Z,7.03
2023-05-19T03:14:03.257Z,7.03
2023-05-19T03:14:35.945Z,7.02
2023-05-19T03:15:08.602Z,7.02
2023-05-19T03:15:41.274Z,6.98
2023-05-19T03:16:14.084Z,6.99
2023-05-19T03:16:47.014Z,6.99
2023-05-19T03:17:19.878Z,6.99
2023-05-19T03:17:52.713Z,6.98
2023-05-19T03:18:19.067Z,6.98
2023-05-19T03:18:51.798Z,6.97
2023-05-19T03:19:24.592Z,6.98
2023-05-19T03:19:57.318Z,6.95
2023-05-19T03:20:28.416Z,6.97
2023-05-19T03:21:01.108Z,6.97
2023-05-19T03:21:33.769Z,6.95
2023-05-19T03:22:06.521Z,6.98
2023-05-19T03:22:39.221Z,6.98
2023-05-19T03:23:11.880Z,6.97
2023-05-19T03:23:44.545Z,6.97
2023-05-19T03:24:17.231Z,6.95
2023-05-19T03:24:49.950Z,6.97
2023-05-19T03:25:22.586Z,6.95
2023-05-19T03:25:55.253Z,6.97
2023-05-19T03:26:27.915Z,6.97
2023-05-19T03:27:00.603Z,6.95
2023-05-19T03:27:33.255Z,6.97
2023-05-19T03:28:05.938Z,6.95
2023-05-19T03:28:38.630Z,6.95
2023-05-19T03:29:11.333Z,6.97
2023-05-19T03:29:43.995Z,6.95
2023-05-19T03:30:16.672Z,6.97
2023-05-19T03:30:49.337Z,6.97
2023-05-19T03:31:22.009Z,6.94
2023-05-19T03:31:54.705Z,6.97
2023-05-19T03:32:27.502Z,6.97
2023-05-19T03:33:00.319Z,6.95
2023-05-19T03:33:33.121Z,6.95
2023-05-19T03:34:05.833Z,6.95
2023-05-19T03:34:38.493Z,6.98
2023-05-19T03:35:11.173Z,6.97
2023-05-19T03:35:43.828Z,6.95
2023-05-19T03:36:16.511Z,6.97
2023-05-19T03:36:49.175Z,6.95
2023-05-19T03:37:21.837Z,6.97
2023-05-19T03:37:54.524Z,6.95
2023-05-19T03:38:27.180Z,6.97
2023-05-19T03:38:59.852Z,6.97
2023-05-19T03:39:32.530Z,6.97
2023-05-19T03:40:05.190Z,6.95
2023-05-19T03:40:37.856Z,6.95
2023-05-19T03:41:10.536Z,6.97
2023-05-19T03:41:43.220Z,6.97
2023-05-19T03:42:15.873Z,6.97
2023-05-19T03:42:48.546Z,6.97
2023-05-19T03:43:21.301Z,6.98
2023-05-19T03:43:53.958Z,6.98
2023-05-19T03:44:26.670Z,6.97
2023-05-19T03:44:59.316Z,6.97
2023-05-19T03:45:31.987Z,6.97
2023-05-19T03:46:04.729Z,6.97
2023-05-19T03:46:37.414Z,6.99
2023-05-19T03:47:10.079Z,6.97
2023-05-19T03:47:42.763Z,6.98
2023-05-19T03:48:15.425Z,6.98
2023-05-19T03:48:48.104Z,6.99
2023-05-19T03:49:20.789Z,6.98
2023-05-19T03:49:53.446Z,6.99
2023-05-19T03:50:26.134Z,7.02
2023-05-19T03:50:58.896Z,7.03
2023-05-19T03:51:31.546Z,7.03
2023-05-19T03:52:04.218Z,7.03
2023-05-19T03:52:36.885Z,7.02
2023-05-19T03:53:09.550Z,7.05
2023-05-19T03:53:42.209Z,7.05
2023-05-19T03:54:14.896Z,7.07
2023-05-19T03:54:47.574Z,7.06
2023-05-19T03:55:20.291Z,7.05
2023-05-19T03:55:52.944Z,7.05
2023-05-19T03:56:25.606Z,7.06
2023-05-19T03:56:58.281Z,7.07
2023-05-19T03:57:30.962Z,7.07
2023-05-19T03:58:03.630Z,7.07
2023-05-19T03:58:36.325Z,7.07
2023-05-19T03:59:08.996Z,7.09
2023-05-19T03:59:41.668Z,7.07
2023-05-19T04:00:14.332Z,7.07
2023-05-19T04:00:47.010Z,7.09
2023-05-19T04:01:19.680Z,7.06
2023-05-19T04:01:52.355Z,7.05
2023-05-19T04:02:25.177Z,7.03
2023-05-19T04:02:58.004Z,7.03
2023-05-19T04:03:30.765Z,7.03
2023-05-19T04:04:03.536Z,7.03
2023-05-19T04:04:36.262Z,7.02
2023-05-19T04:05:07.288Z,7.05
2023-05-19T04:05:39.948Z,7.03
2023-05-19T04:06:12.643Z,7.06
2023-05-19T04:06:45.305Z,7.06
2023-05-19T04:07:17.983Z,7.07
2023-05-19T04:07:50.715Z,7.07
2023-05-19T04:08:23.379Z,7.09
2023-05-19T04:08:56.078Z,7.10
2023-05-19T04:09:28.745Z,7.13
2023-05-19T04:10:01.441Z,7.15
2023-05-19T04:10:34.263Z,7.16
2023-05-19T04:11:07.015Z,7.17
2023-05-19T04:11:39.686Z,7.17
2023-05-19T04:12:12.335Z,7.21
2023-05-19T04:12:44.999Z,7.21
2023-05-19T04:13:17.681Z,7.23
2023-05-19T04:13:50.392Z,7.24
2023-05-19T04:14:23.042Z,7.25
2023-05-19T04:14:55.703Z,7.28
2023-05-19T04:15:28.480Z,7.30
2023-05-19T04:16:01.161Z,7.30
2023-05-19T04:16:33.873Z,7.34
2023-05-19T04:17:06.538Z,7.34
2023-05-19T04:17:39.227Z,7.37
2023-05-19T04:18:11.952Z,7.37
2023-05-19T04:18:44.694Z,7.40
2023-05-19T04:19:17.762Z,7.43
2023-05-19T04:19:43.951Z,7.43
2023-05-19T04:20:16.618Z,7.43
2023-05-19T04:20:49.283Z,7.43
2023-05-19T04:21:21.961Z,7.46
2023-05-19T04:21:54.625Z,7.45
2023-05-19T04:22:27.300Z,7.48
2023-05-19T04:22:59.993Z,7.48
2023-05-19T04:23:32.714Z,7.48
2023-05-19T04:24:05.375Z,7.50
2023-05-19T04:24:38.043Z,7.52
2023-05-19T04:25:10.719Z,7.53
2023-05-19T04:25:43.396Z,7.55
2023-05-19T04:26:16.102Z,7.57
2023-05-19T04:26:48.774Z,7.58
2023-05-19T04:27:21.457Z,7.58
2023-05-19T04:27:54.120Z,7.60
2023-05-19T04:28:26.797Z,7.63
2023-05-19T04:28:59.504Z,7.64
2023-05-19T04:29:32.154Z,7.67
2023-05-19T04:30:04.875Z,7.68
2023-05-19T04:30:37.521Z,7.68
2023-05-19T04:31:10.193Z,7.69
2023-05-19T04:31:42.973Z,7.72
2023-05-19T04:32:15.650Z,7.72
2023-05-19T04:32:48.362Z,7.72
2023-05-19T04:33:21.058Z,7.75
2023-05-19T04:33:53.753Z,7.75
2023-05-19T04:34:26.424Z,7.77
2023-05-19T04:34:59.089Z,7.79
2023-05-19T04:35:31.754Z,7.82
2023-05-19T04:36:04.432Z,7.85
2023-05-19T04:36:37.089Z,7.86
2023-05-19T04:37:09.768Z,7.85
2023-05-19T04:37:42.432Z,7.87
2023-05-19T04:38:15.107Z,7.90
2023-05-19T04:38:47.782Z,7.90
2023-05-19T04:39:20.463Z,7.92
2023-05-19T04:39:51.549Z,7.93
2023-05-19T04:40:24.231Z,7.95
2023-05-19T04:40:56.885Z,7.98
2023-05-19T04:41:29.562Z,7.97
2023-05-19T04:42:02.231Z,8.00
2023-05-19T04:42:34.911Z,8.00
2023-05-19T04:43:07.595Z,8.01
2023-05-19T04:43:40.281Z,8.02
2023-05-19T04:44:12.999Z,8.05
2023-05-19T04:44:45.649Z,8.05
2023-05-19T04:45:18.341Z,8.07
2023-05-19T04:45:51.022Z,8.10
2023-05-19T04:46:23.713Z,8.11
2023-05-19T04:46:56.453Z,8.16
2023-05-19T04:47:29.114Z,8.16
2023-05-19T04:48:01.828Z,8.18
2023-05-19T04:48:34.510Z,8.18
2023-05-19T04:49:07.202Z,8.18
2023-05-19T04:49:39.876Z,8.20
2023-05-19T04:50:12.541Z,8.23
2023-05-19T04:50:45.208Z,8.23
2023-05-19T04:51:17.872Z,8.26
2023-05-19T04:51:51.838Z,8.28
2023-05-19T04:52:18.853Z,8.28
2023-05-19T04:52:51.533Z,8.30
2023-05-19T04:53:24.220Z,8.33
2023-05-19T04:53:56.889Z,8.34
2023-05-19T04:54:29.549Z,8.36
2023-05-19T04:55:02.230Z,8.36
2023-05-19T04:55:34.890Z,8.38
2023-05-19T04:56:07.562Z,8.40
2023-05-19T04:56:40.224Z,8.43
2023-05-19T04:57:12.891Z,8.44
2023-05-19T04:57:45.557Z,8.45
2023-05-19T04:58:18.235Z,8.47
2023-05-19T04:58:50.940Z,8.47
2023-05-19T04:59:23.614Z,8.50
2023-05-19T04:59:56.275Z,8.52
2023-05-19T05:00:28.942Z,8.55
2023-05-19T05:01:01.619Z,8.56
2023-05-19T05:01:34.325Z,8.58
2023-05-19T05:02:07.175Z,8.59
2023-05-19T05:02:40.011Z,8.59
2023-05-19T05:03:12.723Z,8.62
2023-05-19T05:03:45.468Z,8.63
2023-05-19T05:04:18.143Z,8.65
2023-05-19T05:04:50.814Z,8.66
2023-05-19T05:05:23.483Z,8.68
2023-05-19T05:05:56.156Z,8.70
2023-05-19T05:06:28.826Z,8.73
2023-05-19T05:07:01.479Z,8.74
2023-05-19T05:07:34.144Z,8.74
2023-05-19T05:08:06.827Z,8.76
2023-05-19T05:08:39.512Z,8.79
2023-05-19T05:09:12.161Z,8.80
2023-05-19T05:09:44.835Z,8.83
2023-05-19T05:10:17.541Z,8.86
2023-05-19T05:10:50.214Z,8.86
2023-05-19T05:11:22.894Z,8.89
2023-05-19T05:12:28.202Z,8.91
2023-05-19T05:13:00.873Z,8.92
2023-05-19T05:13:33.538Z,8.95
2023-05-19T05:14:06.229Z,8.96
2023-05-19T05:14:38.985Z,8.98
2023-05-19T05:15:11.638Z,9.01
2023-05-19T05:15:44.303Z,9.04
2023-05-19T05:16:17.030Z,9.08
2023-05-19T05:16:49.766Z,9.11
2023-05-19T05:17:22.471Z,9.14
2023-05-19T05:17:55.250Z,9.15
2023-05-19T05:18:27.906Z,9.18
2023-05-19T05:19:00.641Z,9.20
2023-05-19T05:19:33.406Z,9.23
2023-05-19T05:20:06.205Z,9.24
2023-05-19T05:20:38.857Z,9.26
2023-05-19T05:21:11.530Z,9.29
2023-05-19T05:21:44.196Z,9.31
2023-05-19T05:22:16.886Z,9.32
2023-05-19T05:22:49.561Z,9.33
2023-05-19T05:23:22.250Z,9.36
2023-05-19T05:23:54.904Z,9.38
2023-05-19T05:24:27.575Z,9.38
2023-05-19T05:25:00.242Z,9.40
2023-05-19T05:25:33.134Z,9.43
2023-05-19T05:25:59.456Z,9.46
2023-05-19T05:26:32.126Z,9.48
2023-05-19T05:27:04.779Z,9.48
2023-05-19T05:27:37.450Z,9.53
2023-05-19T05:28:10.126Z,9.54
2023-05-19T05:28:42.785Z,9.56
2023-05-19T05:29:15.482Z,9.56
2023-05-19T05:29:48.183Z,9.60
2023-05-19T05:30:20.833Z,9.60
2023-05-19T05:30:53.493Z,9.65
2023-05-19T05:31:26.170Z,9.66
2023-05-19T05:31:58.883Z,9.68
2023-05-19T05:32:31.624Z,9.71
2023-05-19T05:33:04.433Z,9.71
2023-05-19T05:33:37.169Z,9.74
2023-05-19T05:34:09.845Z,9.72
2023-05-19T05:34:42.505Z,9.76
2023-05-19T05:35:15.170Z,9.76
2023-05-19T05:35:47.851Z,9.81
2023-05-19T05:36:20.544Z,9.81
2023-05-19T05:36:53.203Z,9.83
2023-05-19T05:37:25.877Z,9.86
2023-05-19T05:37:58.608Z,9.89
2023-05-19T05:38:31.267Z,9.91
2023-05-19T05:39:03.960Z,9.91
2023-05-19T05:39:36.646Z,9.94
2023-05-19T05:40:09.308Z,9.96
2023-05-19T05:40:41.982Z,9.99
2023-05-19T05:41:14.646Z,10.01
2023-05-19T05:41:47.314Z,10.04
2023-05-19T05:42:19.990Z,10.02
2023-05-19T05:42:52.657Z,10.04
2023-05-19T05:43:25.348Z,10.07
2023-05-19T05:43:58.024Z,10.07
2023-05-19T05:44:30.700Z,10.09
2023-05-19T05:45:03.391Z,10.09
2023-05-19T05:45:36.117Z,10.11
2023-05-19T05:46:08.877Z,10.12
2023-05-19T05:46:41.617Z,10.14
2023-05-19T05:47:14.261Z,10.15
2023-05-19T05:47:47.039Z,10.18
2023-05-19T05:48:19.700Z,10.20
2023-05-19T05:48:52.394Z,10.25
2023-05-19T05:49:25.056Z,10.23
2023-05-19T05:49:57.734Z,10.26
2023-05-19T05:50:30.434Z,10.30
2023-05-19T05:51:03.086Z,10.34
2023-05-19T05:51:35.769Z,10.36
2023-05-19T05:52:08.429Z,10.40
2023-05-19T05:52:41.088Z,10.42
2023-05-19T05:53:13.760Z,10.47
2023-05-19T05:53:46.440Z,10.51
2023-05-19T05:54:19.123Z,10.52
2023-05-19T05:54:51.790Z,10.52
2023-05-19T05:55:24.459Z,10.55
2023-05-19T05:55:57.126Z,10.59
2023-05-19T05:56:29.810Z,10.59
2023-05-19T05:57:02.499Z,10.61
2023-05-19T05:57:35.156Z,10.64
2023-05-19T05:58:07.823Z,10.68
2023-05-19T05:58:40.494Z,10.70
2023-05-19T05:59:13.193Z,10.70
2023-05-19T05:59:45.865Z,10.74
2023-05-19T06:00:18.566Z,10.76
2023-05-19T06:00:51.210Z,10.78
2023-05-19T06:01:23.968Z,10.79
2023-05-19T06:01:56.725Z,10.82
2023-05-19T06:02:29.525Z,10.86
2023-05-19T06:03:02.239Z,10.88
2023-05-19T06:03:34.989Z,10.89
2023-05-19T06:04:07.676Z,10.91
2023-05-19T06:04:40.328Z,10.94
2023-05-19T06:05:13.090Z,10.97
2023-05-19T06:05:45.832Z,11.03
2023-05-19T06:06:18.505Z,11.04
2023-05-19T06:06:51.170Z,11.07
2023-05-19T06:07:23.876Z,11.09
2023-05-19T06:07:56.520Z,11.14
2023-05-19T06:08:29.188Z,11.15
2023-05-19T06:09:01.875Z,11.17
2023-05-19T06:09:34.549Z,11.18
2023-05-19T06:10:07.233Z,11.21
2023-05-19T06:10:39.887Z,11.24
2023-05-19T06:11:12.596Z,11.25
2023-05-19T06:11:45.295Z,11.22
2023-05-19T06:12:17.941Z,11.19
2023-05-19T06:12:50.619Z,11.22
2023-05-19T06:13:23.293Z,11.24
2023-05-19T06:13:55.986Z,11.25
2023-05-19T06:14:28.656Z,11.27
2023-05-19T06:15:01.325Z,11.28
2023-05-19T06:15:34.075Z,11.33
2023-05-19T06:16:06.801Z,11.35
2023-05-19T06:16:39.632Z,11.39
2023-05-19T06:17:06.021Z,11.40
2023-05-19T06:17:38.734Z,11.43
2023-05-19T06:18:11.440Z,11.46
2023-05-19T06:18:44.149Z,11.49
2023-05-19T06:19:16.923Z,11.54
2023-05-19T06:19:49.615Z,11.55
2023-05-19T06:20:22.263Z,11.61
2023-05-19T06:20:54.957Z,11.62
2023-05-19T06:21:27.612Z,11.65
2023-05-19T06:22:00.279Z,11.69
2023-05-19T06:22:32.940Z,11.70
2023-05-19T06:23:05.618Z,11.73
2023-05-19T06:23:38.284Z,11.76
2023-05-19T06:24:10.972Z,11.79
2023-05-19T06:24:43.711Z,11.83
2023-05-19T06:25:16.383Z,11.85
2023-05-19T06:25:49.070Z,11.90
2023-05-19T06:26:21.741Z,11.94
2023-05-19T06:26:54.393Z,11.90
2023-05-19T06:27:27.058Z,11.86
2023-05-19T06:27:59.733Z,11.83
2023-05-19T06:28:32.418Z,11.83
2023-05-19T06:29:05.113Z,11.88
2023-05-19T06:29:37.800Z,11.90
2023-05-19T06:30:10.463Z,11.95
2023-05-19T06:30:43.140Z,11.98
2023-05-19T06:31:15.799Z,12.04
2023-05-19T06:31:48.522Z,12.09
2023-05-19T06:32:21.329Z,12.12
2023-05-19T06:32:52.337Z,12.13
2023-05-19T06:33:26.146Z,12.17
2023-05-19T06:33:54.342Z,12.21
2023-05-19T06:34:27.025Z,12.28
2023-05-19T06:34:59.690Z,12.34
2023-05-19T06:35:32.401Z,12.38
2023-05-19T06:36:05.088Z,12.45
2023-05-19T06:36:37.756Z,12.49
2023-05-19T06:37:10.439Z,12.52
2023-05-19T06:37:43.102Z,12.54
2023-05-19T06:38:15.861Z,12.57
2023-05-19T06:38:48.525Z,12.59
2023-05-19T06:39:21.199Z,12.59
2023-05-19T06:39:53.868Z,12.56
2023-05-19T06:40:26.532Z,12.57
2023-05-19T06:40:59.240Z,12.65
2023-05-19T06:41:31.878Z,12.70
2023-05-19T06:42:04.546Z,12.75
2023-05-19T06:42:37.224Z,12.83
2023-05-19T06:43:09.897Z,12.89
2023-05-19T06:43:42.568Z,12.95
2023-05-19T06:44:15.258Z,12.92
2023-05-19T06:44:47.929Z,12.89
2023-05-19T06:45:20.599Z,12.86
2023-05-19T06:45:53.376Z,12.79
2023-05-19T06:46:26.044Z,12.82
2023-05-19T06:46:58.751Z,12.83
2023-05-19T06:47:31.450Z,12.86
2023-05-19T06:48:04.271Z,12.90
2023-05-19T06:48:36.954Z,12.95
2023-05-19T06:49:09.670Z,13.01
2023-05-19T06:49:42.306Z,13.05
2023-05-19T06:50:14.988Z,13.11
2023-05-19T06:50:47.641Z,13.17
2023-05-19T06:51:20.324Z,13.20
2023-05-19T06:51:53.002Z,13.28
2023-05-19T06:52:25.685Z,13.30
2023-05-19T06:52:58.479Z,13.36
2023-05-19T06:53:31.158Z,13.42
2023-05-19T06:54:02.255Z,13.46
2023-05-19T06:54:34.963Z,13.51
2023-05-19T06:55:07.657Z,13.59
2023-05-19T06:55:50.733Z,13.64
2023-05-19T06:56:12.430Z,13.70
2023-05-19T06:56:38.597Z,13.71
2023-05-19T06:57:11.288Z,13.71
2023-05-19T06:57:43.957Z,13.71
2023-05-19T06:58:16.627Z,13.73
2023-05-19T06:58:49.317Z,13.75
2023-05-19T06:59:21.980Z,13.78
2023-05-19T06:59:53.071Z,13.79
2023-05-19T07:00:25.760Z,13.77
2023-05-19T07:00:58.516Z,13.69
2023-05-19T07:01:31.259Z,13.63
2023-05-19T07:02:04.030Z,13.64
2023-05-19T07:02:36.790Z,13.66
2023-05-19T07:03:09.554Z,13.70
2023-05-19T07:03:42.413Z,13.73
2023-05-19T07:04:15.204Z,13.77
2023-05-19T07:04:47.869Z,13.79
2023-05-19T07:05:20.564Z,13.82
2023-05-19T07:05:53.226Z,13.77
2023-05-19T07:06:25.896Z,13.70
2023-05-19T07:06:58.574Z,13.71
2023-05-19T07:07:31.238Z,13.73
2023-05-19T07:08:03.902Z,13.77
2023-05-19T07:08:36.600Z,13.77
2023-05-19T07:09:09.269Z,13.79
2023-05-19T07:09:42.254Z,13.84
2023-05-19T07:10:14.906Z,13.84
2023-05-19T07:10:41.626Z,13.84